Time;durP1;ratioP1;P1;durP2;ratioP2;P2;SDS_P1;SDS_P2;PMS_P1;PMS_P2;Temp;Humidity;BMP_temperature;BMP_pressure;BME280_temperature;BME280_humidity;BME280_pressure;Samples;Min_cycle;Max_cycle;Signal;HPM_P1;HPM_P2
2023/09/21 00:01:13;;;;;;;19.65;8.57;;;22.40;95.80;;;;;;4858557;29;20152;-76
2023/09/21 00:03:40;;;;;;;15.73;8.77;;;22.40;96.70;;;;;;4871633;29;20056;-79
2023/09/21 00:06:09;;;;;;;21.02;9.63;;;22.40;96.70;;;;;;4869371;29;20498;-79
2023/09/21 00:08:36;;;;;;;21.42;9.98;;;22.30;96.40;;;;;;4858518;29;20133;-81
2023/09/21 00:11:05;;;;;;;16.38;7.90;;;22.30;97.20;;;;;;4858089;29;20371;-80
2023/09/21 00:13:33;;;;;;;19.50;9.45;;;22.50;97.30;;;;;;4866409;29;20101;-82
2023/09/21 00:16:02;;;;;;;18.55;8.27;;;22.60;96.90;;;;;;4868928;29;20386;-79
2023/09/21 00:18:29;;;;;;;12.68;8.15;;;22.70;97.30;;;;;;4873129;29;20049;-77
2023/09/21 00:21:00;;;;;;;19.23;8.35;;;22.70;97.10;;;;;;4851718;29;20041;-82
2023/09/21 00:23:30;;;;;;;15.60;8.15;;;22.30;97.30;;;;;;4867999;29;20034;-78
2023/09/21 00:25:57;;;;;;;20.33;8.98;;;22.40;97.60;;;;;;4855091;29;20037;-79
2023/09/21 00:28:29;;;;;;;18.30;8.27;;;22.50;97.50;;;;;;4853148;29;20045;-78
2023/09/21 00:30:58;;;;;;;17.80;8.38;;;22.50;97.30;;;;;;4855433;29;20101;-78
2023/09/21 00:33:27;;;;;;;19.77;8.43;;;22.50;98.30;;;;;;4857422;29;20041;-79
2023/09/21 00:35:59;;;;;;;15.15;7.22;;;22.50;97.90;;;;;;4869836;29;20097;-80
2023/09/21 00:38:27;;;;;;;16.65;8.40;;;22.50;97.70;;;;;;4853879;29;20065;-78
2023/09/21 00:41:02;;;;;;;18.98;8.93;;;22.40;97.70;;;;;;4853155;29;20098;-79
2023/09/21 00:43:30;;;;;;;15.38;7.70;;;22.20;98.30;;;;;;4871124;29;20396;-77
2023/09/21 00:46:01;;;;;;;13.90;7.75;;;21.90;98.70;;;;;;4853721;29;20045;-78
2023/09/21 00:48:36;;;;;;;13.75;7.45;;;22.00;98.70;;;;;;4853675;29;20037;-77
2023/09/21 00:51:07;;;;;;;17.65;8.65;;;22.20;98.90;;;;;;4851913;29;20062;-78
2023/09/21 00:53:36;;;;;;;19.98;7.32;;;22.30;99.00;;;;;;4852105;29;20033;-76
2023/09/21 00:56:09;;;;;;;12.27;7.30;;;22.10;98.90;;;;;;4853262;29;20049;-76
2023/09/21 00:58:39;;;;;;;15.07;7.82;;;22.30;99.20;;;;;;4856604;29;20045;-78
2023/09/21 01:01:08;;;;;;;15.82;6.50;;;22.10;99.30;;;;;;4852518;29;20377;-78
2023/09/21 01:03:37;;;;;;;17.17;6.67;;;22.20;99.20;;;;;;4868393;29;20129;-77
2023/09/21 01:06:06;;;;;;;14.07;7.18;;;22.20;99.50;;;;;;4866123;29;20482;-77
2023/09/21 01:08:34;;;;;;;13.45;6.40;;;22.30;98.90;;;;;;4864758;29;20098;-78
2023/09/21 01:11:08;;;;;;;12.88;7.75;;;22.10;99.30;;;;;;4856156;29;20057;-77
2023/09/21 01:13:35;;;;;;;14.13;7.15;;;22.00;99.90;;;;;;4871995;29;20545;-76
2023/09/21 01:16:05;;;;;;;15.65;7.05;;;22.00;99.70;;;;;;4867882;29;20454;-77
2023/09/21 01:18:35;;;;;;;13.57;7.03;;;22.20;99.80;;;;;;4852376;29;20033;-78
2023/09/21 01:21:12;;;;;;;22.23;7.60;;;22.20;99.60;;;;;;4853190;29;20042;-76
2023/09/21 01:23:56;;;;;;;16.00;7.40;;;21.90;99.60;;;;;;4857473;29;20040;-79
2023/09/21 01:26:24;;;;;;;14.95;6.90;;;21.60;99.90;;;;;;4871742;29;20173;-78
2023/09/21 01:28:51;;;;;;;16.27;7.70;;;21.90;99.90;;;;;;4871913;29;20050;-79
2023/09/21 01:31:18;;;;;;;13.35;6.95;;;21.80;99.90;;;;;;4871771;29;20138;-76
2023/09/21 01:33:47;;;;;;;12.18;6.80;;;21.30;99.90;;;;;;4855896;29;20042;-77
2023/09/21 01:36:16;;;;;;;13.68;7.95;;;21.60;99.90;;;;;;4852694;29;20086;-77
2023/09/21 01:38:44;;;;;;;14.30;7.80;;;21.40;99.90;;;;;;4864404;29;20141;-79
2023/09/21 01:41:14;;;;;;;17.02;7.68;;;21.60;99.90;;;;;;4854100;29;20061;-78
2023/09/21 01:43:41;;;;;;;19.55;7.30;;;21.60;99.90;;;;;;4856371;29;20374;-80
2023/09/21 01:46:09;;;;;;;12.80;6.85;;;21.40;99.90;;;;;;4851515;29;20041;-80
2023/09/21 01:48:36;;;;;;;13.63;7.53;;;21.50;99.90;;;;;;4856148;29;20064;-80
2023/09/21 01:51:05;;;;;;;15.05;8.18;;;21.40;99.90;;;;;;4854597;29;20943;-79
2023/09/21 01:53:33;;;;;;;13.18;7.63;;;21.50;99.90;;;;;;4871554;29;20128;-80
2023/09/21 01:56:00;;;;;;;15.15;7.40;;;21.60;99.90;;;;;;4860040;29;20049;-79
2023/09/21 01:58:27;;;;;;;17.58;7.28;;;21.60;99.90;;;;;;4864460;29;20093;-81
2023/09/21 02:00:54;;;;;;;22.50;7.47;;;21.80;99.90;;;;;;4858387;29;20393;-79
2023/09/21 02:03:28;;;;;;;15.93;7.35;;;22.00;99.90;;;;;;4860864;29;20042;-79
2023/09/21 02:05:59;;;;;;;14.88;7.32;;;22.00;99.90;;;;;;4868515;29;20051;-82
2023/09/21 02:08:33;;;;;;;12.13;7.30;;;21.80;99.90;;;;;;4858753;29;20098;-81
2023/09/21 02:11:00;;;;;;;16.00;7.85;;;21.70;99.90;;;;;;4869502;29;20047;-78
2023/09/21 02:13:28;;;;;;;14.00;7.18;;;21.40;99.90;;;;;;4873268;29;20033;-79
2023/09/21 02:15:55;;;;;;;12.75;7.07;;;21.70;99.90;;;;;;4873190;29;20056;-83
2023/09/21 02:18:22;;;;;;;12.63;7.47;;;21.70;99.90;;;;;;4874836;29;20408;-79
2023/09/21 02:20:50;;;;;;;12.43;7.70;;;21.90;99.90;;;;;;4874747;29;20137;-78
2023/09/21 02:23:22;;;;;;;17.42;7.55;;;21.90;99.90;;;;;;4874420;29;20058;-79
2023/09/21 02:25:53;;;;;;;13.95;7.32;;;21.70;99.90;;;;;;4867035;29;20050;-78
2023/09/21 02:28:22;;;;;;;12.73;7.40;;;21.80;99.90;;;;;;4857890;29;20116;-80
2023/09/21 02:30:51;;;;;;;11.48;7.13;;;21.80;99.90;;;;;;4856945;29;20041;-79
2023/09/21 02:33:19;;;;;;;12.02;6.80;;;21.70;99.90;;;;;;4856678;29;20431;-80
2023/09/21 02:35:47;;;;;;;14.23;6.90;;;21.70;99.90;;;;;;4871896;29;20030;-79
2023/09/21 02:38:20;;;;;;;14.98;6.55;;;21.60;99.90;;;;;;4857660;29;20040;-81
2023/09/21 02:40:48;;;;;;;16.10;7.32;;;21.90;99.90;;;;;;4856342;29;20503;-81
2023/09/21 02:43:16;;;;;;;12.07;7.15;;;22.00;99.90;;;;;;4870623;29;20110;-81
2023/09/21 02:45:47;;;;;;;16.02;7.28;;;21.90;99.90;;;;;;4860569;29;20125;-81
2023/09/21 02:48:15;;;;;;;10.63;6.60;;;21.80;99.90;;;;;;4854111;29;20060;-80
2023/09/21 02:50:48;;;;;;;15.23;6.85;;;21.80;99.90;;;;;;4860166;29;20037;-82
2023/09/21 02:53:16;;;;;;;15.57;7.20;;;21.80;99.90;;;;;;4869191;29;20489;-81
2023/09/21 02:55:43;;;;;;;14.30;7.20;;;21.60;99.90;;;;;;4853075;29;20045;-80
2023/09/21 02:58:12;;;;;;;12.35;7.43;;;21.60;99.90;;;;;;4874103;29;20042;-82
2023/09/21 03:00:49;;;;;;;15.63;6.13;;;21.30;99.90;;;;;;4855665;29;20046;-81
2023/09/21 03:03:20;;;;;;;13.18;6.32;;;21.40;99.90;;;;;;4856179;29;20052;-80
2023/09/21 03:05:49;;;;;;;10.80;6.22;;;21.40;99.90;;;;;;4853249;29;20041;-81
2023/09/21 03:08:17;;;;;;;14.05;7.93;;;21.30;99.90;;;;;;4872120;29;20041;-80
2023/09/21 03:10:49;;;;;;;18.45;8.38;;;21.50;99.90;;;;;;4856549;29;20397;-77
2023/09/21 03:13:19;;;;;;;13.95;7.72;;;21.40;99.90;;;;;;4853800;29;20048;-79
2023/09/21 03:15:52;;;;;;;18.77;7.93;;;21.50;99.90;;;;;;4856109;29;20034;-80
2023/09/21 03:18:20;;;;;;;15.40;7.55;;;21.10;99.90;;;;;;4858200;29;20124;-80
2023/09/21 03:20:52;;;;;;;12.88;8.00;;;21.00;99.90;;;;;;4867337;29;20635;-81
2023/09/21 03:23:21;;;;;;;14.13;7.22;;;21.00;99.90;;;;;;4859629;29;20037;-79
2023/09/21 03:25:53;;;;;;;20.45;10.20;;;21.30;99.90;;;;;;4858377;29;20030;-81
2023/09/21 03:28:22;;;;;;;17.02;8.38;;;21.10;99.90;;;;;;4856643;29;20040;-77
2023/09/21 03:30:52;;;;;;;13.88;7.45;;;21.30;99.90;;;;;;4848277;29;20118;-76
2023/09/21 03:33:21;;;;;;;15.00;7.68;;;21.20;99.90;;;;;;4855444;29;20041;-80
2023/09/21 03:35:49;;;;;;;14.85;7.50;;;21.10;99.90;;;;;;4854352;29;20038;-79
2023/09/21 03:38:20;;;;;;;15.35;7.20;;;20.80;99.90;;;;;;4856800;29;20041;-79
2023/09/21 03:40:50;;;;;;;;;;;21.10;99.90;;;;;;4873705;29;20061;-81
2023/09/21 03:43:18;;;;;;;;;;;20.80;99.90;;;;;;4866507;29;20365;-79
2023/09/21 03:45:47;;;;;;;12.98;6.20;;;20.40;99.90;;;;;;4857526;29;20269;-79
2023/09/21 03:48:15;;;;;;;11.52;5.97;;;20.80;99.90;;;;;;4853619;29;20033;-80
2023/09/21 03:50:43;;;;;;;10.65;6.28;;;21.00;99.90;;;;;;4865563;29;20553;-79
2023/09/21 03:53:11;;;;;;;15.05;7.63;;;21.10;99.90;;;;;;4873252;29;20056;-80
2023/09/21 03:55:39;;;;;;;11.30;6.22;;;20.80;99.90;;;;;;4853560;29;20046;-79
2023/09/21 03:58:08;;;;;;;14.38;6.70;;;20.90;99.90;;;;;;4854271;29;20034;-79
2023/09/21 04:00:36;;;;;;;13.25;6.30;;;21.20;99.90;;;;;;4872802;29;20106;-80
2023/09/21 04:03:11;;;;;;;15.10;6.43;;;21.40;99.90;;;;;;4855535;29;20045;-81
2023/09/21 04:05:41;;;;;;;15.30;7.25;;;21.30;99.90;;;;;;4854008;29;20042;-80
2023/09/21 04:08:09;;;;;;;17.70;6.90;;;20.90;99.90;;;;;;4857168;29;20049;-77
2023/09/21 04:10:36;;;;;;;14.77;7.20;;;21.10;99.90;;;;;;4867233;29;20049;-80
2023/09/21 04:13:05;;;;;;;11.98;6.53;;;21.30;99.90;;;;;;4864934;29;20034;-79
2023/09/21 04:15:33;;;;;;;9.73;5.85;;;21.40;99.90;;;;;;4854188;29;20051;-79
2023/09/21 04:18:02;;;;;;;13.65;6.85;;;21.50;99.90;;;;;;4870161;29;20038;-81
2023/09/21 04:20:34;;;;;;;11.98;6.97;;;21.40;99.90;;;;;;4871150;29;20106;-80
2023/09/21 04:23:03;;;;;;;11.05;6.10;;;21.40;99.90;;;;;;4866324;29;20044;-80
2023/09/21 04:25:32;;;;;;;12.68;6.53;;;21.50;99.90;;;;;;4871384;29;20485;-81
2023/09/21 04:28:00;;;;;;;12.20;6.03;;;21.30;99.90;;;;;;4864473;29;20427;-79
2023/09/21 04:30:27;;;;;;;10.00;5.88;;;21.40;99.90;;;;;;4855026;29;20053;-78
2023/09/21 04:32:57;;;;;;;14.65;6.93;;;21.40;99.90;;;;;;4864130;29;20044;-77
2023/09/21 04:35:24;;;;;;;15.75;6.43;;;20.70;99.90;;;;;;4879362;29;20125;-77
2023/09/21 04:37:53;;;;;;;16.10;5.95;;;20.70;99.90;;;;;;4859128;29;20041;-79
2023/09/21 04:40:22;;;;;;;11.98;6.68;;;20.90;99.90;;;;;;4871028;29;20117;-75
2023/09/21 04:42:49;;;;;;;17.13;7.03;;;21.00;99.90;;;;;;4871570;29;20510;-80
2023/09/21 04:45:26;;;;;;;15.02;6.78;;;20.90;99.90;;;;;;4869562;29;20064;-80
2023/09/21 04:48:00;;;;;;;11.23;6.03;;;21.00;99.90;;;;;;4856964;29;20041;-78
2023/09/21 04:50:28;;;;;;;11.00;6.40;;;21.00;99.90;;;;;;4857814;29;20053;-77
2023/09/21 04:52:55;;;;;;;12.48;6.43;;;21.10;99.90;;;;;;4856679;29;20355;-78
2023/09/21 04:55:22;;;;;;;16.85;7.22;;;20.90;99.90;;;;;;4853540;29;20044;-77
2023/09/21 04:57:51;;;;;;;13.75;7.00;;;20.70;99.90;;;;;;4857466;29;20033;-77
2023/09/21 05:00:18;;;;;;;13.63;6.72;;;20.90;99.90;;;;;;4872334;29;20466;-78
2023/09/21 05:02:45;;;;;;;22.90;9.07;;;21.10;99.90;;;;;;4854947;29;20540;-75
2023/09/21 05:05:14;;;;;;;124.10;75.43;;;21.30;99.90;;;;;;4857409;29;20064;-75
2023/09/21 05:07:42;;;;;;;70.95;40.38;;;21.60;99.90;;;;;;4858384;29;20029;-76
2023/09/21 05:10:12;;;;;;;27.33;14.18;;;21.70;99.90;;;;;;4877391;29;20049;-77
2023/09/21 05:12:40;;;;;;;25.10;11.95;;;21.50;99.90;;;;;;4858581;29;20098;-78
2023/09/21 05:15:14;;;;;;;26.30;14.30;;;20.60;99.90;;;;;;4853911;29;20033;-77
2023/09/21 05:17:42;;;;;;;19.20;11.20;;;20.40;99.90;;;;;;4875327;29;20040;-76
2023/09/21 05:20:10;;;;;;;35.78;13.93;;;19.70;99.90;;;;;;4856908;29;20049;-77
2023/09/21 05:22:40;;;;;;;21.33;12.50;;;19.60;99.90;;;;;;4855094;29;20128;-79
2023/09/21 05:25:08;;;;;;;22.23;12.13;;;19.30;99.90;;;;;;4870456;29;20069;-78
2023/09/21 05:27:37;;;;;;;31.80;17.38;;;19.50;99.90;;;;;;4870130;29;20045;-75
2023/09/21 05:30:05;;;;;;;33.58;20.58;;;20.30;99.90;;;;;;4857864;29;20071;-75
2023/09/21 05:32:33;;;;;;;31.33;17.38;;;20.90;99.90;;;;;;4873700;29;20048;-75
2023/09/21 05:35:05;;;;;;;28.60;13.77;;;21.30;99.90;;;;;;4855391;29;20045;-77
2023/09/21 05:37:34;;;;;;;25.92;12.55;;;21.30;99.90;;;;;;4857342;29;20044;-78
2023/09/21 05:40:05;;;;;;;50.03;22.45;;;21.20;99.90;;;;;;4858797;29;20085;-75
2023/09/21 05:42:35;;;;;;;36.42;17.42;;;21.40;99.90;;;;;;4872771;29;20541;-75
2023/09/21 05:45:03;;;;;;;48.40;18.45;;;21.40;99.90;;;;;;4859561;29;20456;-74
2023/09/21 05:47:31;;;;;;;34.50;18.98;;;21.60;99.90;;;;;;4875484;29;20383;-78
2023/09/21 05:49:58;;;;;;;33.22;18.40;;;21.80;99.90;;;;;;4860751;29;20033;-81
2023/09/21 05:52:26;;;;;;;24.52;13.55;;;21.80;99.90;;;;;;4857206;29;20125;-78
2023/09/21 05:54:53;;;;;;;33.67;14.82;;;21.60;99.90;;;;;;4870715;29;20510;-77
2023/09/21 05:57:21;;;;;;;30.70;14.35;;;21.70;99.90;;;;;;4872006;29;20117;-78
2023/09/21 05:59:50;;;;;;;23.45;13.38;;;21.80;99.90;;;;;;4856227;29;20537;-81
2023/09/21 06:02:19;;;;;;;29.38;14.00;;;21.90;99.90;;;;;;4859034;29;20796;-79
2023/09/21 06:04:49;;;;;;;24.27;11.73;;;22.00;99.90;;;;;;4870874;29;20457;-75
2023/09/21 06:07:16;;;;;;;17.42;10.07;;;21.90;99.90;;;;;;4871761;29;20038;-75
2023/09/21 06:09:44;;;;;;;21.95;11.18;;;21.80;99.90;;;;;;4860610;29;20037;-75
2023/09/21 06:12:11;;;;;;;20.17;11.07;;;21.80;99.90;;;;;;4854795;29;20389;-73
2023/09/21 06:14:39;;;;;;;17.20;10.57;;;21.70;99.90;;;;;;4855664;29;20041;-76
2023/09/21 06:17:07;;;;;;;20.33;11.07;;;21.70;99.90;;;;;;4871707;29;20041;-76
2023/09/21 06:19:35;;;;;;;15.57;10.27;;;21.80;99.90;;;;;;4874075;29;20683;-75
2023/09/21 06:22:02;;;;;;;15.40;9.48;;;21.60;99.90;;;;;;4858938;29;20044;-76
2023/09/21 06:24:31;;;;;;;30.13;9.48;;;21.60;99.90;;;;;;4858876;29;20045;-77
2023/09/21 06:27:18;;;;;;;18.60;8.80;;;21.60;99.90;;;;;;4869841;29;20096;-75
2023/09/21 06:29:45;;;;;;;17.60;8.63;;;21.50;99.90;;;;;;4859447;29;20053;-74
2023/09/21 06:32:12;;;;;;;22.58;9.15;;;21.70;99.90;;;;;;4853630;29;20045;-76
2023/09/21 06:34:43;;;;;;;17.45;8.75;;;21.90;99.90;;;;;;4874567;29;20102;-76
2023/09/21 06:37:15;;;;;;;19.58;9.43;;;21.80;99.90;;;;;;4859334;29;20136;-75
2023/09/21 06:39:42;;;;;;;19.48;8.90;;;21.70;99.90;;;;;;4855543;29;20040;-76
2023/09/21 06:42:11;;;;;;;17.83;8.43;;;21.50;99.90;;;;;;4858855;29;20049;-76
2023/09/21 06:44:39;;;;;;;18.08;8.07;;;21.30;99.90;;;;;;4858820;29;20402;-75
2023/09/21 06:47:07;;;;;;;14.38;7.93;;;21.50;99.90;;;;;;4857573;29;20386;-76
2023/09/21 06:49:35;;;;;;;19.48;8.40;;;21.70;99.90;;;;;;4874076;29;20478;-76
2023/09/21 06:52:04;;;;;;;18.58;8.85;;;21.90;99.90;;;;;;4858136;29;20504;-75
2023/09/21 06:54:32;;;;;;;17.15;8.60;;;22.20;99.90;;;;;;4855493;29;20120;-77
2023/09/21 06:57:08;;;;;;;24.25;9.38;;;22.30;99.90;;;;;;4855729;29;20041;-75
2023/09/21 06:59:41;;;;;;;14.52;8.13;;;22.50;99.90;;;;;;4858406;29;20049;-77
2023/09/21 07:02:24;;;;;;;18.95;8.32;;;22.70;99.90;;;;;;4852154;29;20397;-75
2023/09/21 07:05:12;;;;;;;16.98;8.48;;;22.80;99.90;;;;;;4856162;29;20044;-77
2023/09/21 07:07:41;;;;;;;13.80;8.07;;;22.90;99.90;;;;;;4857289;29;20394;-77
2023/09/21 07:10:10;;;;;;;13.48;7.50;;;22.90;99.90;;;;;;4855678;29;20277;-76
2023/09/21 07:12:39;;;;;;;12.10;7.47;;;23.00;99.90;;;;;;4858362;29;20501;-76
2023/09/21 07:15:09;;;;;;;17.27;7.93;;;22.80;99.90;;;;;;4867533;29;20033;-77
2023/09/21 07:17:37;;;;;;;15.18;7.40;;;23.00;99.90;;;;;;4854123;29;20041;-75
2023/09/21 07:20:06;;;;;;;14.18;8.57;;;23.00;99.90;;;;;;4867670;29;20046;-75
2023/09/21 07:22:33;;;;;;;14.88;8.35;;;23.20;99.90;;;;;;4855592;29;20534;-76
2023/09/21 07:25:02;;;;;;;14.65;7.90;;;23.30;99.90;;;;;;4854378;29;20135;-76
2023/09/21 07:27:30;;;;;;;14.63;7.47;;;22.90;99.90;;;;;;4854989;29;20070;-76
2023/09/21 07:29:58;;;;;;;16.23;8.27;;;23.20;99.90;;;;;;4856626;29;20068;-75
2023/09/21 07:32:29;;;;;;;17.38;8.55;;;23.60;99.90;;;;;;4851921;29;20057;-75
2023/09/21 07:34:57;;;;;;;17.55;7.95;;;23.80;99.90;;;;;;4858424;29;20205;-74
2023/09/21 07:37:24;;;;;;;17.35;7.45;;;23.90;99.90;;;;;;4857243;29;20542;-74
2023/09/21 07:39:51;;;;;;;12.20;8.23;;;23.90;99.90;;;;;;4854732;29;20026;-76
2023/09/21 07:42:19;;;;;;;14.60;7.95;;;23.90;99.90;;;;;;4873257;29;20390;-77
2023/09/21 07:44:48;;;;;;;17.23;7.68;;;23.80;99.80;;;;;;4856991;29;20037;-76
2023/09/21 07:47:16;;;;;;;13.00;7.07;;;23.80;99.80;;;;;;4858867;29;20388;-77
2023/09/21 07:49:44;;;;;;;19.52;7.50;;;23.80;99.60;;;;;;4873697;29;20041;-76
2023/09/21 07:52:12;;;;;;;13.70;7.50;;;24.00;99.60;;;;;;4871507;29;20045;-76
2023/09/21 07:54:39;;;;;;;14.85;7.53;;;24.10;99.50;;;;;;4856634;29;20041;-76
2023/09/21 07:57:07;;;;;;;15.88;7.70;;;24.20;99.50;;;;;;4853654;29;20048;-76
2023/09/21 07:59:34;;;;;;;13.40;6.80;;;24.20;99.40;;;;;;4856412;29;20136;-76
2023/09/21 08:02:03;;;;;;;18.10;6.47;;;24.10;99.90;;;;;;4855278;29;20034;-75
2023/09/21 08:04:30;;;;;;;11.82;6.57;;;24.10;99.90;;;;;;4854425;29;20033;-76
2023/09/21 08:06:59;;;;;;;12.90;6.75;;;24.30;99.60;;;;;;4857420;29;20076;-75
2023/09/21 08:09:26;;;;;;;19.65;7.75;;;24.20;99.90;;;;;;4854842;29;20355;-74
2023/09/21 08:12:00;;;;;;;13.65;6.78;;;24.00;99.90;;;;;;4856827;29;20060;-77
2023/09/21 08:14:29;;;;;;;15.18;7.93;;;24.00;99.90;;;;;;4865124;29;20053;-74
2023/09/21 08:16:58;;;;;;;13.27;6.57;;;24.00;99.90;;;;;;4869391;29;20040;-76
2023/09/21 08:19:26;;;;;;;13.27;6.55;;;23.50;99.90;;;;;;4854305;29;20048;-76
2023/09/21 08:21:53;;;;;;;12.77;6.45;;;23.60;99.90;;;;;;4855161;29;20085;-75
2023/09/21 08:24:20;;;;;;;11.45;6.63;;;24.00;99.90;;;;;;4855050;29;20036;-78
2023/09/21 08:26:47;;;;;;;11.98;6.55;;;24.20;99.90;;;;;;4857455;29;20169;-75
2023/09/21 08:29:14;;;;;;;13.63;6.55;;;24.30;99.90;;;;;;4853979;29;20120;-76
2023/09/21 08:31:42;;;;;;;14.10;6.32;;;24.40;99.60;;;;;;4854025;29;20052;-77
2023/09/21 08:34:09;;;;;;;12.40;6.47;;;24.50;99.50;;;;;;4852375;29;20198;-76
2023/09/21 08:36:37;;;;;;;19.98;6.88;;;24.50;99.80;;;;;;4856003;29;20045;-78
2023/09/21 08:39:05;;;;;;;11.88;7.40;;;24.60;99.40;;;;;;4856322;29;20477;-75
2023/09/21 08:41:35;;;;;;;11.50;6.15;;;24.80;99.40;;;;;;4852330;29;20038;-76
2023/09/21 08:44:04;;;;;;;;;;;25.00;98.90;;;;;;4854721;29;20101;-75
2023/09/21 08:46:34;;;;;;;17.20;6.95;;;25.00;98.70;;;;;;4866760;29;19938;-77
2023/09/21 08:49:03;;;;;;;16.52;6.43;;;25.20;98.50;;;;;;4854696;29;20130;-78
2023/09/21 08:51:32;;;;;;;15.15;7.00;;;25.30;98.60;;;;;;4851857;29;20389;-75
2023/09/21 08:54:02;;;;;;;9.57;5.95;;;25.20;98.40;;;;;;4871921;29;20034;-77
2023/09/21 08:56:33;;;;;;;11.63;5.90;;;25.40;98.20;;;;;;4855117;29;20052;-77
2023/09/21 08:59:01;;;;;;;12.95;5.30;;;25.80;97.80;;;;;;4853354;29;20103;-76
2023/09/21 09:01:29;;;;;;;13.45;5.88;;;25.80;97.70;;;;;;4859729;29;20037;-76
2023/09/21 09:03:58;;;;;;;11.80;5.30;;;25.90;97.90;;;;;;4848760;29;20475;-76
2023/09/21 09:06:29;;;;;;;14.80;5.73;;;25.90;97.30;;;;;;4853000;29;20053;-75
2023/09/21 09:08:56;;;;;;;12.30;6.80;;;25.70;97.90;;;;;;4854289;29;20368;-76
2023/09/21 09:11:40;;;;;;;11.80;5.53;;;26.10;97.10;;;;;;4854239;29;20070;-76
2023/09/21 09:14:18;;;;;;;9.90;5.85;;;26.50;96.40;;;;;;4854326;29;20048;-77
2023/09/21 09:16:52;;;;;;;12.52;5.47;;;26.50;96.20;;;;;;4851362;29;20059;-77
2023/09/21 09:19:19;;;;;;;13.00;5.80;;;26.80;95.70;;;;;;4854247;29;20029;-76
2023/09/21 09:21:48;;;;;;;11.65;5.68;;;26.60;95.90;;;;;;4855887;29;20121;-77
2023/09/21 09:24:15;;;;;;;12.43;5.43;;;26.70;95.60;;;;;;4852520;29;20050;-77
2023/09/21 09:26:43;;;;;;;12.77;6.13;;;26.70;95.70;;;;;;4853005;29;20122;-76
2023/09/21 09:29:16;;;;;;;11.02;5.63;;;26.90;95.40;;;;;;4853982;29;20070;-77
2023/09/21 09:31:47;;;;;;;11.07;6.05;;;26.90;95.00;;;;;;4853758;29;20049;-76
2023/09/21 09:34:17;;;;;;;8.93;5.38;;;26.60;95.30;;;;;;4852693;29;20054;-76
2023/09/21 09:36:49;;;;;;;11.82;5.68;;;26.70;95.60;;;;;;4855615;29;20057;-75
2023/09/21 09:39:18;;;;;;;10.65;5.50;;;27.00;95.30;;;;;;4871262;29;20037;-75
2023/09/21 09:41:48;;;;;;;8.45;4.93;;;27.20;94.90;;;;;;4853117;29;20382;-77
2023/09/21 09:44:21;;;;;;;12.10;5.28;;;27.20;94.20;;;;;;4853882;29;20108;-76
2023/09/21 09:46:51;;;;;;;10.57;5.13;;;27.00;94.20;;;;;;4866214;29;20052;-75
2023/09/21 09:49:20;;;;;;;9.38;5.07;;;27.00;94.20;;;;;;4852166;29;20030;-77
2023/09/21 09:51:53;;;;;;;14.98;5.63;;;27.10;94.00;;;;;;4853092;29;20442;-78
2023/09/21 09:54:21;;;;;;;8.82;4.57;;;27.10;93.80;;;;;;4851781;29;20033;-77
2023/09/21 09:56:51;;;;;;;12.38;4.53;;;27.10;93.40;;;;;;4871801;29;20121;-75
2023/09/21 09:59:21;;;;;;;9.27;5.47;;;27.30;93.50;;;;;;4849324;29;20034;-76
2023/09/21 10:01:49;;;;;;;;;;;27.40;93.20;;;;;;4857808;29;20040;-76
2023/09/21 10:04:18;;;;;;;10.73;4.90;;;27.60;93.10;;;;;;4851713;29;19930;-77
2023/09/21 10:06:47;;;;;;;9.27;5.20;;;28.00;93.00;;;;;;4853154;29;20106;-77
2023/09/21 10:09:18;;;;;;;9.00;4.95;;;27.90;92.40;;;;;;4854802;29;20378;-77
2023/09/21 10:11:48;;;;;;;8.02;4.97;;;27.70;91.80;;;;;;4867559;29;20406;-77
2023/09/21 10:14:17;;;;;;;7.90;4.65;;;27.80;91.60;;;;;;4856050;29;20426;-80
2023/09/21 10:16:54;;;;;;;9.18;4.63;;;28.10;91.60;;;;;;4856852;29;20393;-75
2023/09/21 10:19:26;;;;;;;9.85;5.03;;;28.00;90.60;;;;;;4860776;29;20045;-79
2023/09/21 10:21:59;;;;;;;8.82;4.38;;;28.10;90.90;;;;;;4857626;29;20041;-81
2023/09/21 10:24:31;;;;;;;11.05;5.38;;;28.10;90.40;;;;;;4859057;29;20029;-78
2023/09/21 10:27:03;;;;;;;10.73;4.35;;;28.40;90.60;;;;;;4874675;29;20045;-76
2023/09/21 10:29:39;;;;;;;9.52;4.68;;;28.40;90.20;;;;;;4870922;29;20169;-78
2023/09/21 10:32:07;;;;;;;11.68;4.97;;;28.80;89.70;;;;;;4873535;29;20073;-77
2023/09/21 10:34:34;;;;;;;7.63;4.80;;;28.50;89.00;;;;;;4874145;29;20040;-77
2023/09/21 10:37:10;;;;;;;9.63;4.47;;;28.50;89.50;;;;;;4873874;29;20075;-76
2023/09/21 10:39:39;;;;;;;8.82;4.47;;;28.60;88.50;;;;;;4853652;29;20034;-76
2023/09/21 10:42:07;;;;;;;8.97;4.30;;;28.50;88.30;;;;;;4870475;29;20045;-76
2023/09/21 10:44:53;;;;;;;8.55;4.25;;;28.70;88.10;;;;;;4854674;29;20285;-77
2023/09/21 10:47:30;;;;;;;8.15;4.70;;;28.80;87.70;;;;;;4858049;29;20124;-77
2023/09/21 10:50:14;;;;;;;12.07;4.75;;;29.00;87.10;;;;;;4868758;29;20049;-79
2023/09/21 10:52:46;;;;;;;9.38;4.85;;;29.40;85.50;;;;;;4874199;29;20136;-77
2023/09/21 10:55:16;;;;;;;9.30;4.85;;;29.10;86.10;;;;;;4857533;29;20038;-77
2023/09/21 10:57:46;;;;;;;12.50;4.72;;;29.10;85.80;;;;;;4873951;29;20160;-78
2023/09/21 11:00:21;;;;;;;10.40;5.00;;;29.50;84.60;;;;;;4855843;29;20116;-78
2023/09/21 11:02:50;;;;;;;12.93;4.57;;;29.80;83.40;;;;;;4855781;29;20393;-78
2023/09/21 11:05:19;;;;;;;11.95;4.68;;;29.60;82.20;;;;;;4868168;29;20037;-76
2023/09/21 11:07:50;;;;;;;11.27;4.30;;;29.60;82.20;;;;;;4857706;29;20154;-78
2023/09/21 11:10:18;;;;;;;8.65;4.57;;;29.70;81.20;;;;;;4856365;29;20141;-77
2023/09/21 11:12:46;;;;;;;10.02;4.35;;;30.00;81.20;;;;;;4870087;29;20063;-76
2023/09/21 11:15:16;;;;;;;8.65;4.07;;;30.20;80.60;;;;;;4864220;29;20094;-76
2023/09/21 11:17:46;;;;;;;9.05;4.38;;;30.50;79.60;;;;;;4871571;29;20045;-75
2023/09/21 11:20:17;;;;;;;10.57;4.30;;;30.90;78.80;;;;;;4862461;29;20121;-79
2023/09/21 11:22:48;;;;;;;12.27;4.75;;;31.00;78.40;;;;;;4857910;29;20089;-78
2023/09/21 11:25:22;;;;;;;9.57;4.60;;;30.90;77.20;;;;;;4855150;29;20148;-78
2023/09/21 11:27:50;;;;;;;10.05;4.38;;;30.80;77.90;;;;;;4871497;29;20655;-76
2023/09/21 11:30:18;;;;;;;7.32;4.10;;;30.30;78.10;;;;;;4859026;29;20048;-77
2023/09/21 11:32:48;;;;;;;7.57;4.22;;;30.30;77.80;;;;;;4858875;29;20524;-77
2023/09/21 11:35:20;;;;;;;7.43;4.23;;;30.50;78.20;;;;;;4856071;29;20040;-78
2023/09/21 11:37:49;;;;;;;9.98;4.13;;;31.20;77.20;;;;;;4870184;29;20060;-79
2023/09/21 11:40:21;;;;;;;9.73;4.57;;;33.10;73.00;;;;;;4859817;29;20050;-78
2023/09/21 11:42:55;;;;;;;8.13;4.22;;;32.30;72.20;;;;;;4853482;29;20061;-77
2023/09/21 11:45:25;;;;;;;9.23;4.85;;;31.40;73.80;;;;;;4855284;29;20125;-77
2023/09/21 11:47:54;;;;;;;8.30;4.38;;;31.20;74.20;;;;;;4867226;29;20133;-81
2023/09/21 11:50:25;;;;;;;7.13;4.28;;;31.10;75.20;;;;;;4870121;29;20034;-77
2023/09/21 11:52:54;;;;;;;9.27;3.90;;;31.20;74.50;;;;;;4854522;29;20125;-77
2023/09/21 11:55:29;;;;;;;8.77;5.00;;;31.10;74.30;;;;;;4858349;29;20386;-79
2023/09/21 11:58:16;;;;;;;8.60;4.55;;;31.20;74.40;;;;;;4855815;29;20493;-77
2023/09/21 12:03:23;;;;;;;9.20;4.00;;;30.90;74.70;;;;;;4855226;29;20301;-76
2023/09/21 12:05:55;;;;;;;12.20;4.95;;;31.10;73.50;;;;;;4855749;29;20048;-77
2023/09/21 12:08:25;;;;;;;9.88;4.25;;;31.50;73.40;;;;;;4878254;29;20037;-79
2023/09/21 12:10:53;;;;;;;9.93;4.37;;;31.60;72.60;;;;;;4857322;29;20037;-78
2023/09/21 12:13:20;;;;;;;11.27;4.25;;;31.40;73.80;;;;;;4858576;29;20038;-76
2023/09/21 12:15:52;;;;;;;10.45;4.28;;;31.50;73.10;;;;;;4871616;29;20408;-78
2023/09/21 12:18:20;;;;;;;8.05;4.57;;;31.60;73.00;;;;;;4868570;29;20113;-78
2023/09/21 12:20:51;;;;;;;10.35;5.60;;;31.90;72.80;;;;;;4857927;29;20493;-78
2023/09/21 12:23:19;;;;;;;;;;;31.90;72.60;;;;;;4858881;29;20041;-78
2023/09/21 12:25:47;;;;;;;8.13;3.90;;;31.90;72.60;;;;;;4878042;29;19966;-77
2023/09/21 12:28:14;;;;;;;8.85;4.63;;;31.50;70.40;;;;;;4860583;29;20512;-77
2023/09/21 12:30:42;;;;;;;11.90;4.78;;;31.50;70.90;;;;;;4857027;29;20065;-77
2023/09/21 12:33:15;;;;;;;12.65;5.53;;;31.30;70.30;;;;;;4872242;29;20048;-78
2023/09/21 12:36:04;;;;;;;11.75;5.18;;;31.20;70.30;;;;;;4869988;29;20046;-77
2023/09/21 12:38:33;;;;;;;10.85;4.50;;;30.90;70.60;;;;;;4855911;29;20413;-75
2023/09/21 12:41:01;;;;;;;9.73;4.32;;;30.90;71.50;;;;;;4856630;29;20059;-75
2023/09/21 12:43:28;;;;;;;11.15;4.32;;;31.30;70.70;;;;;;4857758;29;20474;-74
2023/09/21 12:45:58;;;;;;;12.73;4.80;;;31.60;70.50;;;;;;4854042;29;20037;-75
2023/09/21 12:48:26;;;;;;;;;;;31.20;71.30;;;;;;4857243;29;20409;-78
2023/09/21 12:50:54;;;;;;;11.85;4.85;;;30.90;70.80;;;;;;4852183;29;20264;-78
2023/09/21 12:53:21;;;;;;;11.05;4.40;;;30.90;70.80;;;;;;4855957;29;20045;-76